Plum City, Wisconsin
Current Conditions -  °F | °C
As of 6:38 AM on Thursday 23 Oct 2014 (Local Time) from KLUM Reporting Station
Drizzle Drizzle  
Wind Chill: 46°   Ceiling: 1600
Heat Index: 48°   Visibility: 5mi
Dew Point: 46°   Wind: 5mph
Humidity: 93%   Direction: 140°SE
Pressure: 30.03"   Gusts: NA
Location:  44.63°N, 92.19°W
Report Text: KLUM 231138Z AUTO 14004KT 5SM DZ SCT008 SCT012 OVC016 09/08 A3003 RMK AO2 P0001
Loading
Personal Weather Stations






























Interactive Weather Map
Tropical Storm Tracking
New forecast layout! Learn more

10-Day Weather Forecast

Advertisements
Track Severe Weather on mobile